sensor_id;sensor_type;location;lat;lon;timestamp;pressure;altitude;pressure_sealevel;temperature;humidity
22580;BME280;11456;47.030;15.396;2022-12-10T00:01:57;96020.09;;;3.94;100.00
22580;BME280;11456;47.030;15.396;2022-12-10T00:04:24;96015.66;;;3.85;100.00
22580;BME280;11456;47.030;15.396;2022-12-10T00:06:50;96022.38;;;3.89;100.00
22580;BME280;11456;47.030;15.396;2022-12-10T00:09:17;96028.31;;;3.83;100.00
22580;BME280;11456;47.030;15.396;2022-12-10T00:11:45;96022.38;;;3.89;100.00
22580;BME280;11456;47.030;15.396;2022-12-10T00:14:12;96030.56;;;3.78;100.00
22580;BME280;11456;47.030;15.396;2022-12-10T00:16:39;96038.50;;;3.70;100.00
22580;BME280;11456;47.030;15.396;2022-12-10T00:19:05;96034.78;;;3.98;100.00
22580;BME280;11456;47.030;15.396;2022-12-10T00:21:33;96037.06;;;4.11;100.00
22580;BME280;11456;47.030;15.396;2022-12-10T00:24:00;96038.34;;;4.25;100.00
22580;BME280;11456;47.030;15.396;2022-12-10T00:26:28;96036.69;;;4.24;100.00
22580;BME280;11456;47.030;15.396;2022-12-10T00:28:55;96036.53;;;4.25;100.00
22580;BME280;11456;47.030;15.396;2022-12-10T00:31:29;96030.56;;;4.49;100.00
22580;BME280;11456;47.030;15.396;2022-12-10T00:33:57;96035.16;;;4.39;100.00
22580;BME280;11456;47.030;15.396;2022-12-10T00:36:25;96045.44;;;4.34;100.00
22580;BME280;11456;47.030;15.396;2022-12-10T00:38:52;96045.22;;;4.10;100.00
22580;BME280;11456;47.030;15.396;2022-12-10T00:41:19;96045.59;;;4.15;100.00
22580;BME280;11456;47.030;15.396;2022-12-10T00:43:45;96053.22;;;4.27;100.00
22580;BME280;11456;47.030;15.396;2022-12-10T00:46:13;96055.25;;;3.98;100.00
22580;BME280;11456;47.030;15.396;2022-12-10T00:48:40;96052.75;;;3.96;100.00
22580;BME280;11456;47.030;15.396;2022-12-10T00:51:11;96052.63;;;4.16;100.00
22580;BME280;11456;47.030;15.396;2022-12-10T00:53:38;96053.72;;;4.31;100.00
22580;BME280;11456;47.030;15.396;2022-12-10T00:56:05;96058.97;;;4.23;100.00
22580;BME280;11456;47.030;15.396;2022-12-10T00:58:32;96059.53;;;4.09;100.00
22580;BME280;11456;47.030;15.396;2022-12-10T01:01:10;96065.91;;;3.98;100.00
22580;BME280;11456;47.030;15.396;2022-12-10T01:03:37;96078.22;;;4.17;100.00
22580;BME280;11456;47.030;15.396;2022-12-10T01:06:17;96084.50;;;4.08;100.00
22580;BME280;11456;47.030;15.396;2022-12-10T01:08:44;96081.59;;;4.19;100.00
22580;BME280;11456;47.030;15.396;2022-12-10T01:11:12;96091.72;;;4.15;100.00
22580;BME280;11456;47.030;15.396;2022-12-10T01:13:39;96094.03;;;4.28;100.00
22580;BME280;11456;47.030;15.396;2022-12-10T01:16:06;96099.25;;;4.20;100.00
22580;BME280;11456;47.030;15.396;2022-12-10T01:18:33;96110.06;;;4.36;100.00
22580;BME280;11456;47.030;15.396;2022-12-10T01:21:04;96110.66;;;4.30;100.00
22580;BME280;11456;47.030;15.396;2022-12-10T01:23:31;96114.16;;;4.13;100.00
22580;BME280;11456;47.030;15.396;2022-12-10T01:25:59;96110.63;;;4.39;100.00
22580;BME280;11456;47.030;15.396;2022-12-10T01:28:27;96108.72;;;4.32;100.00
22580;BME280;11456;47.030;15.396;2022-12-10T01:30:54;96117.84;;;4.47;100.00
22580;BME280;11456;47.030;15.396;2022-12-10T01:33:20;96117.31;;;4.43;100.00
22580;BME280;11456;47.030;15.396;2022-12-10T01:35:47;96125.63;;;4.40;100.00
22580;BME280;11456;47.030;15.396;2022-12-10T01:38:13;96121.19;;;4.84;100.00
22580;BME280;11456;47.030;15.396;2022-12-10T01:40:40;96121.41;;;4.56;100.00
22580;BME280;11456;47.030;15.396;2022-12-10T01:43:09;96131.38;;;4.36;100.00
22580;BME280;11456;47.030;15.396;2022-12-10T01:45:39;96128.56;;;4.37;100.00
22580;BME280;11456;47.030;15.396;2022-12-10T01:48:06;96132.09;;;4.38;100.00
22580;BME280;11456;47.030;15.396;2022-12-10T01:50:33;96133.06;;;4.37;100.00
22580;BME280;11456;47.030;15.396;2022-12-10T01:53:00;96136.81;;;4.44;100.00
22580;BME280;11456;47.030;15.396;2022-12-10T01:55:44;96141.06;;;4.37;100.00
22580;BME280;11456;47.030;15.396;2022-12-10T01:58:12;96142.03;;;4.36;100.00
22580;BME280;11456;47.030;15.396;2022-12-10T02:00:41;96134.13;;;4.44;100.00
22580;BME280;11456;47.030;15.396;2022-12-10T02:03:13;96132.47;;;4.43;100.00
22580;BME280;11456;47.030;15.396;2022-12-10T02:05:41;96119.06;;;4.53;100.00
22580;BME280;11456;47.030;15.396;2022-12-10T02:08:10;96123.66;;;4.60;100.00
22580;BME280;11456;47.030;15.396;2022-12-10T02:10:43;96118.31;;;4.60;100.00
22580;BME280;11456;47.030;15.396;2022-12-10T02:13:58;96121.38;;;4.48;100.00
22580;BME280;11456;47.030;15.396;2022-12-10T02:16:11;96119.22;;;4.33;100.00
22580;BME280;11456;47.030;15.396;2022-12-10T02:18:41;96115.09;;;4.39;100.00
22580;BME280;11456;47.030;15.396;2022-12-10T02:21:19;96104.81;;;4.62;100.00
22580;BME280;11456;47.030;15.396;2022-12-10T02:23:49;96112.59;;;4.73;100.00
22580;BME280;11456;47.030;15.396;2022-12-10T02:29:04;96114.28;;;5.00;100.00
22580;BME280;11456;47.030;15.396;2022-12-10T02:31:33;96125.63;;;5.02;100.00
22580;BME280;11456;47.030;15.396;2022-12-10T02:34:01;96131.84;;;4.84;100.00
22580;BME280;11456;47.030;15.396;2022-12-10T02:36:32;96129.47;;;4.81;100.00
22580;BME280;11456;47.030;15.396;2022-12-10T02:38:59;96121.91;;;4.95;100.00
22580;BME280;11456;47.030;15.396;2022-12-10T02:41:32;96122.13;;;5.01;100.00
22580;BME280;11456;47.030;15.396;2022-12-10T02:44:00;96132.50;;;4.87;100.00
22580;BME280;11456;47.030;15.396;2022-12-10T02:46:30;96141.69;;;4.84;100.00
22580;BME280;11456;47.030;15.396;2022-12-10T02:49:01;96137.06;;;4.94;100.00
22580;BME280;11456;47.030;15.396;2022-12-10T02:51:29;96126.22;;;5.13;100.00
22580;BME280;11456;47.030;15.396;2022-12-10T02:53:59;96123.94;;;5.18;100.00
22580;BME280;11456;47.030;15.396;2022-12-10T02:56:36;96125.56;;;5.11;100.00
22580;BME280;11456;47.030;15.396;2022-12-10T03:04:16;96151.72;;;4.90;100.00
22580;BME280;11456;47.030;15.396;2022-12-10T03:06:47;96156.50;;;4.87;100.00
22580;BME280;11456;47.030;15.396;2022-12-10T03:09:22;96155.59;;;4.96;100.00
22580;BME280;11456;47.030;15.396;2022-12-10T03:11:49;96160.53;;;5.08;100.00
22580;BME280;11456;47.030;15.396;2022-12-10T03:14:20;96148.63;;;5.20;100.00
22580;BME280;11456;47.030;15.396;2022-12-10T03:16:50;96150.47;;;5.46;100.00
22580;BME280;11456;47.030;15.396;2022-12-10T03:19:20;96145.25;;;5.36;100.00
22580;BME280;11456;47.030;15.396;2022-12-10T03:21:48;96152.81;;;5.23;100.00
22580;BME280;11456;47.030;15.396;2022-12-10T03:24:16;96168.91;;;5.13;100.00
22580;BME280;11456;47.030;15.396;2022-12-10T03:26:43;96173.19;;;5.24;100.00
22580;BME280;11456;47.030;15.396;2022-12-10T03:29:15;96170.59;;;5.14;100.00
22580;BME280;11456;47.030;15.396;2022-12-10T03:31:43;96162.75;;;5.13;100.00
22580;BME280;11456;47.030;15.396;2022-12-10T03:34:10;96164.41;;;5.14;100.00
22580;BME280;11456;47.030;15.396;2022-12-10T03:36:37;96174.78;;;5.17;100.00
22580;BME280;11456;47.030;15.396;2022-12-10T03:39:04;96164.00;;;5.78;100.00
22580;BME280;11456;47.030;15.396;2022-12-10T03:41:31;96160.75;;;5.67;100.00
22580;BME280;11456;47.030;15.396;2022-12-10T03:43:58;96164.13;;;5.43;100.00
22580;BME280;11456;47.030;15.396;2022-12-10T03:46:25;96169.06;;;5.30;100.00
22580;BME280;11456;47.030;15.396;2022-12-10T03:48:53;96175.72;;;5.08;100.00
22580;BME280;11456;47.030;15.396;2022-12-10T03:51:19;96185.41;;;5.09;100.00
22580;BME280;11456;47.030;15.396;2022-12-10T03:53:46;96183.47;;;5.19;100.00
22580;BME280;11456;47.030;15.396;2022-12-10T03:56:15;96190.59;;;4.75;100.00
22580;BME280;11456;47.030;15.396;2022-12-10T03:58:42;96195.91;;;4.57;100.00
22580;BME280;11456;47.030;15.396;2022-12-10T04:01:08;96188.66;;;4.67;100.00
22580;BME280;11456;47.030;15.396;2022-12-10T04:03:35;96181.00;;;4.82;100.00
22580;BME280;11456;47.030;15.396;2022-12-10T04:06:04;96181.53;;;4.86;100.00
22580;BME280;11456;47.030;15.396;2022-12-10T04:08:30;96176.81;;;4.79;100.00
22580;BME280;11456;47.030;15.396;2022-12-10T04:11:07;96174.34;;;4.68;100.00
22580;BME280;11456;47.030;15.396;2022-12-10T04:13:34;96172.16;;;4.81;100.00
22580;BME280;11456;47.030;15.396;2022-12-10T04:16:20;96170.25;;;4.92;100.00
22580;BME280;11456;47.030;15.396;2022-12-10T04:18:54;96172.69;;;5.03;100.00
22580;BME280;11456;47.030;15.396;2022-12-10T04:21:26;96168.41;;;4.74;100.00
22580;BME280;11456;47.030;15.396;2022-12-10T04:24:12;96173.22;;;4.71;100.00
22580;BME280;11456;47.030;15.396;2022-12-10T04:27:00;96188.66;;;4.67;100.00
22580;BME280;11456;47.030;15.396;2022-12-10T04:29:29;96188.59;;;4.95;100.00
22580;BME280;11456;47.030;15.396;2022-12-10T04:31:56;96185.66;;;4.98;100.00
22580;BME280;11456;47.030;15.396;2022-12-10T04:34:23;96194.88;;;4.86;100.00
22580;BME280;11456;47.030;15.396;2022-12-10T04:36:50;96191.75;;;4.90;100.00
22580;BME280;11456;47.030;15.396;2022-12-10T04:39:17;96191.88;;;4.89;100.00
22580;BME280;11456;47.030;15.396;2022-12-10T04:41:44;96197.53;;;4.86;100.00
22580;BME280;11456;47.030;15.396;2022-12-10T04:44:11;96191.88;;;4.89;100.00
22580;BME280;11456;47.030;15.396;2022-12-10T04:46:38;96197.84;;;4.82;100.00
22580;BME280;11456;47.030;15.396;2022-12-10T04:49:05;96205.53;;;4.86;100.00
22580;BME280;11456;47.030;15.396;2022-12-10T04:51:31;96209.34;;;4.83;100.00
22580;BME280;11456;47.030;15.396;2022-12-10T04:53:58;96212.63;;;4.95;100.00
22580;BME280;11456;47.030;15.396;2022-12-10T04:56:25;96214.06;;;5.07;100.00
22580;BME280;11456;47.030;15.396;2022-12-10T04:58:51;96214.75;;;5.09;100.00
22580;BME280;11456;47.030;15.396;2022-12-10T05:01:18;96213.84;;;5.18;100.00
22580;BME280;11456;47.030;15.396;2022-12-10T05:03:46;96212.69;;;5.03;100.00
22580;BME280;11456;47.030;15.396;2022-12-10T05:06:14;96213.69;;;5.02;100.00
22580;BME280;11456;47.030;15.396;2022-12-10T05:08:41;96214.13;;;5.15;100.00
22580;BME280;11456;47.030;15.396;2022-12-10T05:11:12;96222.06;;;5.07;100.00
22580;BME280;11456;47.030;15.396;2022-12-10T05:13:39;96220.00;;;5.18;100.00
22580;BME280;11456;47.030;15.396;2022-12-10T05:16:07;96223.56;;;5.27;100.00
22580;BME280;11456;47.030;15.396;2022-12-10T05:18:34;96232.13;;;5.13;100.00
22580;BME280;11456;47.030;15.396;2022-12-10T05:21:01;96224.81;;;5.15;100.00
22580;BME280;11456;47.030;15.396;2022-12-10T05:23:28;96230.97;;;5.15;100.00
22580;BME280;11456;47.030;15.396;2022-12-10T05:26:08;96230.00;;;4.99;100.00
22580;BME280;11456;47.030;15.396;2022-12-10T05:28:56;96223.88;;;4.89;100.00
22580;BME280;11456;47.030;15.396;2022-12-10T05:31:24;96217.66;;;4.98;100.00
22580;BME280;11456;47.030;15.396;2022-12-10T05:33:52;96221.44;;;5.13;100.00
22580;BME280;11456;47.030;15.396;2022-12-10T05:36:20;96215.03;;;5.06;100.00
22580;BME280;11456;47.030;15.396;2022-12-10T05:38:47;96209.50;;;4.99;100.00
22580;BME280;11456;47.030;15.396;2022-12-10T05:41:15;96211.09;;;5.10;100.00
22580;BME280;11456;47.030;15.396;2022-12-10T05:43:42;96206.03;;;5.07;100.00
22580;BME280;11456;47.030;15.396;2022-12-10T05:46:10;96208.06;;;5.05;100.00
22580;BME280;11456;47.030;15.396;2022-12-10T05:48:37;96218.22;;;5.27;100.00
22580;BME280;11456;47.030;15.396;2022-12-10T05:51:04;96215.94;;;5.32;100.00
22580;BME280;11456;47.030;15.396;2022-12-10T05:53:31;96211.78;;;5.12;100.00
22580;BME280;11456;47.030;15.396;2022-12-10T05:56:02;96210.75;;;5.13;100.00
22580;BME280;11456;47.030;15.396;2022-12-10T05:58:29;96217.56;;;5.07;100.00
22580;BME280;11456;47.030;15.396;2022-12-10T06:00:56;96217.19;;;5.02;100.00
22580;BME280;11456;47.030;15.396;2022-12-10T06:03:24;96216.34;;;5.02;100.00
22580;BME280;11456;47.030;15.396;2022-12-10T06:05:51;96207.66;;;5.00;100.00
22580;BME280;11456;47.030;15.396;2022-12-10T06:08:17;96208.66;;;5.16;100.00
22580;BME280;11456;47.030;15.396;2022-12-10T06:10:44;96209.44;;;5.35;100.00
22580;BME280;11456;47.030;15.396;2022-12-10T06:13:10;96207.56;;;5.79;100.00
22580;BME280;11456;47.030;15.396;2022-12-10T06:15:38;96204.41;;;5.57;100.00
22580;BME280;11456;47.030;15.396;2022-12-10T06:18:05;96214.47;;;5.63;100.00
22580;BME280;11456;47.030;15.396;2022-12-10T06:20:31;96214.81;;;5.60;100.00
22580;BME280;11456;47.030;15.396;2022-12-10T06:22:58;96209.56;;;5.77;100.00
22580;BME280;11456;47.030;15.396;2022-12-10T06:25:24;96220.19;;;5.25;100.00
22580;BME280;11456;47.030;15.396;2022-12-10T06:27:51;96218.84;;;5.21;100.00
22580;BME280;11456;47.030;15.396;2022-12-10T06:30:17;96216.50;;;5.18;100.00
22580;BME280;11456;47.030;15.396;2022-12-10T06:32:44;96226.16;;;5.19;100.00
22580;BME280;11456;47.030;15.396;2022-12-10T06:35:10;96211.59;;;5.13;100.00
22580;BME280;11456;47.030;15.396;2022-12-10T06:37:37;96218.84;;;5.21;100.00
22580;BME280;11456;47.030;15.396;2022-12-10T06:40:04;96218.38;;;5.25;100.00
22580;BME280;11456;47.030;15.396;2022-12-10T06:42:31;96214.63;;;5.36;100.00
22580;BME280;11456;47.030;15.396;2022-12-10T06:44:57;96213.44;;;5.31;100.00
22580;BME280;11456;47.030;15.396;2022-12-10T06:47:24;96208.16;;;5.21;100.00
22580;BME280;11456;47.030;15.396;2022-12-10T06:49:50;96204.00;;;5.18;100.00
22580;BME280;11456;47.030;15.396;2022-12-10T06:52:17;96210.47;;;5.16;100.00
22580;BME280;11456;47.030;15.396;2022-12-10T06:54:43;96202.53;;;5.24;100.00
22580;BME280;11456;47.030;15.396;2022-12-10T06:57:10;96209.75;;;5.32;100.00
22580;BME280;11456;47.030;15.396;2022-12-10T06:59:36;96217.94;;;5.30;100.00
22580;BME280;11456;47.030;15.396;2022-12-10T07:02:03;96209.13;;;5.38;100.00
22580;BME280;11456;47.030;15.396;2022-12-10T07:04:29;96213.28;;;5.14;100.00
22580;BME280;11456;47.030;15.396;2022-12-10T07:06:56;96213.97;;;5.16;100.00
22580;BME280;11456;47.030;15.396;2022-12-10T07:09:23;96213.50;;;5.21;100.00
22580;BME280;11456;47.030;15.396;2022-12-10T07:11:50;96208.59;;;5.34;100.00
22580;BME280;11456;47.030;15.396;2022-12-10T07:14:16;96206.41;;;5.30;100.00
22580;BME280;11456;47.030;15.396;2022-12-10T07:16:43;96212.38;;;5.23;100.00
22580;BME280;11456;47.030;15.396;2022-12-10T07:19:10;96213.72;;;5.28;100.00
22580;BME280;11456;47.030;15.396;2022-12-10T07:21:40;96210.50;;;5.42;100.00
22580;BME280;11456;47.030;15.396;2022-12-10T07:24:09;96204.84;;;5.71;100.00
22580;BME280;11456;47.030;15.396;2022-12-10T07:26:36;96203.28;;;5.34;100.00
22580;BME280;11456;47.030;15.396;2022-12-10T07:29:04;96208.75;;;5.50;100.00
22580;BME280;11456;47.030;15.396;2022-12-10T07:31:31;96195.28;;;5.60;100.00
22580;BME280;11456;47.030;15.396;2022-12-10T07:33:58;96182.97;;;5.67;100.00
22580;BME280;11456;47.030;15.396;2022-12-10T07:36:25;96187.25;;;5.34;100.00
22580;BME280;11456;47.030;15.396;2022-12-10T07:38:52;96191.34;;;5.46;100.00
22580;BME280;11456;47.030;15.396;2022-12-10T07:41:19;96194.97;;;5.37;100.00
22580;BME280;11456;47.030;15.396;2022-12-10T07:43:45;96200.25;;;5.29;100.00
22580;BME280;11456;47.030;15.396;2022-12-10T07:46:14;96211.44;;;5.58;100.00
22580;BME280;11456;47.030;15.396;2022-12-10T07:48:42;96212.41;;;5.49;100.00
22580;BME280;11456;47.030;15.396;2022-12-10T07:51:09;96206.00;;;5.42;100.00
22580;BME280;11456;47.030;15.396;2022-12-10T07:53:36;96205.56;;;5.29;100.00
22580;BME280;11456;47.030;15.396;2022-12-10T07:56:03;96211.34;;;5.42;100.00
22580;BME280;11456;47.030;15.396;2022-12-10T07:58:30;96214.19;;;5.23;100.00
22580;BME280;11456;47.030;15.396;2022-12-10T08:00:57;96213.25;;;5.32;100.00
22580;BME280;11456;47.030;15.396;2022-12-10T08:03:23;96219.72;;;5.47;100.00
22580;BME280;11456;47.030;15.396;2022-12-10T08:06:08;96229.03;;;5.43;100.00
22580;BME280;11456;47.030;15.396;2022-12-10T08:08:35;96231.41;;;5.29;100.00
22580;BME280;11456;47.030;15.396;2022-12-10T08:11:02;96234.63;;;5.14;100.00
22580;BME280;11456;47.030;15.396;2022-12-10T08:13:30;96227.09;;;5.10;100.00
22580;BME280;11456;47.030;15.396;2022-12-10T08:16:03;96241.94;;;5.12;100.00
22580;BME280;11456;47.030;15.396;2022-12-10T08:18:31;96238.63;;;4.93;100.00
22580;BME280;11456;47.030;15.396;2022-12-10T08:20:57;96239.91;;;4.89;100.00
22580;BME280;11456;47.030;15.396;2022-12-10T08:23:24;96234.94;;;4.94;100.00
22580;BME280;11456;47.030;15.396;2022-12-10T08:25:50;96235.31;;;4.81;100.00
22580;BME280;11456;47.030;15.396;2022-12-10T08:28:17;96233.19;;;4.84;100.00
22580;BME280;11456;47.030;15.396;2022-12-10T08:30:46;96245.38;;;4.69;100.00
22580;BME280;11456;47.030;15.396;2022-12-10T08:33:13;96240.03;;;4.69;100.00
22580;BME280;11456;47.030;15.396;2022-12-10T08:35:40;96240.28;;;4.76;100.00
22580;BME280;11456;47.030;15.396;2022-12-10T08:38:06;96233.44;;;4.91;100.00
22580;BME280;11456;47.030;15.396;2022-12-10T08:40:32;96232.44;;;5.10;100.00
22580;BME280;11456;47.030;15.396;2022-12-10T08:42:59;96243.78;;;4.94;100.00
22580;BME280;11456;47.030;15.396;2022-12-10T08:45:26;96238.53;;;4.84;100.00
22580;BME280;11456;47.030;15.396;2022-12-10T08:47:52;96230.28;;;4.96;100.00
22580;BME280;11456;47.030;15.396;2022-12-10T08:50:19;96229.06;;;5.08;100.00
22580;BME280;11456;47.030;15.396;2022-12-10T08:52:45;96230.97;;;5.15;100.00
22580;BME280;11456;47.030;15.396;2022-12-10T08:55:13;96225.75;;;5.32;100.00
22580;BME280;11456;47.030;15.396;2022-12-10T08:57:40;96229.22;;;5.24;100.00
22580;BME280;11456;47.030;15.396;2022-12-10T09:00:06;96223.94;;;5.32;100.00
22580;BME280;11456;47.030;15.396;2022-12-10T09:02:33;96227.63;;;5.31;100.00
22580;BME280;11456;47.030;15.396;2022-12-10T09:05:00;96230.69;;;5.18;100.00
22580;BME280;11456;47.030;15.396;2022-12-10T09:07:27;96238.66;;;5.36;100.00
22580;BME280;11456;47.030;15.396;2022-12-10T09:09:55;96234.38;;;5.43;100.00
22580;BME280;11456;47.030;15.396;2022-12-10T09:12:22;96238.56;;;5.46;100.00
22580;BME280;11456;47.030;15.396;2022-12-10T09:14:48;96234.56;;;5.24;100.00
22580;BME280;11456;47.030;15.396;2022-12-10T09:17:15;96233.53;;;5.25;100.00
22580;BME280;11456;47.030;15.396;2022-12-10T09:19:42;96232.56;;;5.26;100.00
22580;BME280;11456;47.030;15.396;2022-12-10T09:22:08;96229.75;;;5.28;100.00
22580;BME280;11456;47.030;15.396;2022-12-10T09:24:34;96238.78;;;5.52;100.00
22580;BME280;11456;47.030;15.396;2022-12-10T09:27:02;96239.19;;;5.65;100.00
22580;BME280;11456;47.030;15.396;2022-12-10T09:29:28;96233.38;;;5.70;100.00
22580;BME280;11456;47.030;15.396;2022-12-10T09:31:55;96233.31;;;5.36;100.00
22580;BME280;11456;47.030;15.396;2022-12-10T09:34:21;96236.03;;;5.44;100.00
22580;BME280;11456;47.030;15.396;2022-12-10T09:36:48;96217.75;;;6.01;100.00
22580;BME280;11456;47.030;15.396;2022-12-10T09:39:14;96229.44;;;5.31;100.00
22580;BME280;11456;47.030;15.396;2022-12-10T09:41:46;96227.34;;;4.99;100.00
22580;BME280;11456;47.030;15.396;2022-12-10T09:44:21;96244.19;;;4.99;100.00
22580;BME280;11456;47.030;15.396;2022-12-10T09:46:54;96240.34;;;4.84;100.00
22580;BME280;11456;47.030;15.396;2022-12-10T09:52:00;96233.72;;;4.70;100.00
22580;BME280;11456;47.030;15.396;2022-12-10T09:54:31;96225.19;;;4.67;100.00
22580;BME280;11456;47.030;15.396;2022-12-10T09:56:58;96221.59;;;4.76;100.00
22580;BME280;11456;47.030;15.396;2022-12-10T09:59:29;96226.41;;;4.72;100.00
22580;BME280;11456;47.030;15.396;2022-12-10T10:01:59;96221.97;;;4.81;100.00
22580;BME280;11456;47.030;15.396;2022-12-10T10:04:27;96218.03;;;4.85;100.00
22580;BME280;11456;47.030;15.396;2022-12-10T10:06:54;96212.00;;;4.83;100.00
22580;BME280;11456;47.030;15.396;2022-12-10T10:09:21;96214.91;;;4.90;100.00
22580;BME280;11456;47.030;15.396;2022-12-10T10:11:47;96208.50;;;4.82;100.00
22580;BME280;11456;47.030;15.396;2022-12-10T10:14:20;96201.94;;;4.95;100.00
22580;BME280;11456;47.030;15.396;2022-12-10T10:16:50;96199.97;;;4.97;100.00
22580;BME280;11456;47.030;15.396;2022-12-10T10:19:21;96190.38;;;5.04;100.00
22580;BME280;11456;47.030;15.396;2022-12-10T10:21:50;96194.31;;;5.00;100.00
22580;BME280;11456;47.030;15.396;2022-12-10T10:24:19;96180.81;;;5.01;100.00
22580;BME280;11456;47.030;15.396;2022-12-10T10:26:46;96172.28;;;5.15;100.00
22580;BME280;11456;47.030;15.396;2022-12-10T10:29:14;96174.03;;;5.24;100.00
22580;BME280;11456;47.030;15.396;2022-12-10T10:31:42;96164.63;;;5.20;100.00
22580;BME280;11456;47.030;15.396;2022-12-10T10:34:19;96162.63;;;4.97;100.00
22580;BME280;11456;47.030;15.396;2022-12-10T10:36:47;96156.47;;;5.22;100.00
22580;BME280;11456;47.030;15.396;2022-12-10T10:41:40;96141.94;;;5.16;100.00
22580;BME280;11456;47.030;15.396;2022-12-10T10:44:16;96148.28;;;4.98;100.00
22580;BME280;11456;47.030;15.396;2022-12-10T10:46:45;96134.41;;;5.12;100.00
22580;BME280;11456;47.030;15.396;2022-12-10T10:49:33;96140.75;;;5.19;100.00
22580;BME280;11456;47.030;15.396;2022-12-10T10:52:11;96142.34;;;5.04;100.00
22580;BME280;11456;47.030;15.396;2022-12-10T10:54:40;96138.91;;;5.11;100.00
22580;BME280;11456;47.030;15.396;2022-12-10T10:57:11;96142.63;;;5.01;100.00
22580;BME280;11456;47.030;15.396;2022-12-10T10:59:38;96137.56;;;4.90;100.00
22580;BME280;11456;47.030;15.396;2022-12-10T11:02:19;96148.91;;;4.92;100.00
22580;BME280;11456;47.030;15.396;2022-12-10T11:04:53;96144.22;;;5.11;100.00
22580;BME280;11456;47.030;15.396;2022-12-10T11:07:26;96139.53;;;5.05;100.00
22580;BME280;11456;47.030;15.396;2022-12-10T11:09:58;96126.25;;;4.96;100.00
22580;BME280;11456;47.030;15.396;2022-12-10T11:12:35;96126.41;;;4.94;100.00
22580;BME280;11456;47.030;15.396;2022-12-10T11:15:24;96120.22;;;4.94;100.00
22580;BME280;11456;47.030;15.396;2022-12-10T11:17:50;96110.00;;;5.07;100.00
22580;BME280;11456;47.030;15.396;2022-12-10T11:25:17;96104.03;;;5.13;100.00
22580;BME280;11456;47.030;15.396;2022-12-10T11:30:18;96105.50;;;5.33;100.00
22580;BME280;11456;47.030;15.396;2022-12-10T11:35:46;96099.09;;;5.18;100.00
22580;BME280;11456;47.030;15.396;2022-12-10T11:38:27;96086.47;;;5.28;100.00
22580;BME280;11456;47.030;15.396;2022-12-10T11:41:05;96089.75;;;5.48;100.00
22580;BME280;11456;47.030;15.396;2022-12-10T11:48:51;96096.19;;;5.37;100.00
22580;BME280;11456;47.030;15.396;2022-12-10T11:54:02;96105.56;;;5.41;100.00
22580;BME280;11456;47.030;15.396;2022-12-10T11:56:37;96099.53;;;5.39;100.00
22580;BME280;11456;47.030;15.396;2022-12-10T11:59:09;96094.69;;;5.35;100.00
22580;BME280;11456;47.030;15.396;2022-12-10T12:01:41;96094.09;;;5.23;100.00
22580;BME280;11456;47.030;15.396;2022-12-10T12:09:24;96093.34;;;5.13;100.00
22580;BME280;11456;47.030;15.396;2022-12-10T12:14:40;96097.97;;;5.03;100.00
22580;BME280;11456;47.030;15.396;2022-12-10T12:17:11;96106.28;;;5.00;100.00
22580;BME280;11456;47.030;15.396;2022-12-10T12:19:43;96106.53;;;4.89;100.00
22580;BME280;11456;47.030;15.396;2022-12-10T12:22:29;96102.03;;;4.89;100.00
22580;BME280;11456;47.030;15.396;2022-12-10T12:25:02;96102.44;;;4.76;100.00
22580;BME280;11456;47.030;15.396;2022-12-10T12:27:41;96101.19;;;4.89;100.00
22580;BME280;11456;47.030;15.396;2022-12-10T12:35:11;96099.38;;;4.89;100.00
22580;BME280;11456;47.030;15.396;2022-12-10T12:37:41;96104.13;;;4.77;100.00
22580;BME280;11456;47.030;15.396;2022-12-10T12:50:28;96094.94;;;4.98;100.00
22580;BME280;11456;47.030;15.396;2022-12-10T12:52:57;96091.50;;;5.05;100.00
22580;BME280;11456;47.030;15.396;2022-12-10T12:55:45;96087.09;;;5.22;100.00
22580;BME280;11456;47.030;15.396;2022-12-10T12:58:24;96087.72;;;4.90;100.00
22580;BME280;11456;47.030;15.396;2022-12-10T13:00:55;96080.28;;;5.02;100.00
22580;BME280;11456;47.030;15.396;2022-12-10T13:03:36;96087.72;;;4.90;100.00
22580;BME280;11456;47.030;15.396;2022-12-10T13:06:14;96096.81;;;4.79;100.00
22580;BME280;11456;47.030;15.396;2022-12-10T13:08:53;96092.03;;;4.65;100.00
22580;BME280;11456;47.030;15.396;2022-12-10T13:11:34;96103.69;;;4.64;100.00
22580;BME280;11456;47.030;15.396;2022-12-10T13:14:03;96105.50;;;4.46;100.00
22580;BME280;11456;47.030;15.396;2022-12-10T13:24:25;96103.38;;;4.32;100.00
22580;BME280;11456;47.030;15.396;2022-12-10T13:32:14;96106.88;;;4.50;100.00
22580;BME280;11456;47.030;15.396;2022-12-10T13:34:41;96108.84;;;4.48;100.00
22580;BME280;11456;47.030;15.396;2022-12-10T13:37:16;96102.69;;;5.09;100.00
22580;BME280;11456;47.030;15.396;2022-12-10T13:42:39;96103.16;;;4.61;100.00
22580;BME280;11456;47.030;15.396;2022-12-10T13:45:29;96097.22;;;4.31;100.00
22580;BME280;11456;47.030;15.396;2022-12-10T13:50:43;96096.28;;;4.58;100.00
22580;BME280;11456;47.030;15.396;2022-12-10T13:58:17;96091.25;;;4.55;100.00
22580;BME280;11456;47.030;15.396;2022-12-10T14:06:06;96093.63;;;4.23;100.00
22580;BME280;11456;47.030;15.396;2022-12-10T14:08:36;96099.06;;;4.03;100.00
22580;BME280;11456;47.030;15.396;2022-12-10T14:11:05;96096.88;;;3.99;100.00
22580;BME280;11456;47.030;15.396;2022-12-10T14:13:37;96089.03;;;3.97;100.00
22580;BME280;11456;47.030;15.396;2022-12-10T14:16:05;96096.34;;;3.95;100.00
22580;BME280;11456;47.030;15.396;2022-12-10T14:18:36;96097.53;;;3.83;100.00
22580;BME280;11456;47.030;15.396;2022-12-10T14:21:03;96107.59;;;3.89;100.00
22580;BME280;11456;47.030;15.396;2022-12-10T14:23:32;96104.00;;;3.81;100.00
22580;BME280;11456;47.030;15.396;2022-12-10T14:26:04;96104.22;;;3.87;100.00